createdAt,value
2023-08-21T00:03:40.979Z,16.03
2023-08-21T00:08:45.226Z,15.47
2023-08-21T00:13:50.576Z,14.90
2023-08-21T00:18:53.391Z,17.20
2023-08-21T00:23:57.682Z,16.27
2023-08-21T00:29:00.810Z,14.50
2023-08-21T00:34:03.662Z,15.13
2023-08-21T00:39:07.996Z,16.30
2023-08-21T00:44:10.930Z,17.37
2023-08-21T00:49:14.003Z,17.97
2023-08-21T00:54:19.027Z,16.80
2023-08-21T00:59:22.485Z,16.40
2023-08-21T01:04:25.328Z,18.10
2023-08-21T01:09:34.700Z,15.93
2023-08-21T01:14:47.794Z,17.17
2023-08-21T01:19:52.344Z,17.87
2023-08-21T01:24:56.633Z,18.33
2023-08-21T01:30:00.288Z,17.20
2023-08-21T01:35:04.786Z,19.30
2023-08-21T01:40:10.693Z,17.73
2023-08-21T01:45:13.546Z,18.30
2023-08-21T01:50:16.535Z,18.13
2023-08-21T01:55:20.973Z,18.73
2023-08-21T02:00:23.790Z,19.37
2023-08-21T02:05:26.612Z,19.80
2023-08-21T02:10:30.770Z,17.53
2023-08-21T02:15:33.820Z,20.10
2023-08-21T02:20:36.743Z,19.63
2023-08-21T02:25:41.103Z,19.53
2023-08-21T02:30:44.320Z,20.60
2023-08-21T02:35:47.123Z,19.57
2023-08-21T02:40:51.411Z,18.60
2023-08-21T02:45:54.262Z,17.30
2023-08-21T02:50:57.110Z,17.93
2023-08-21T02:56:01.427Z,17.47
2023-08-21T03:01:04.288Z,17.90
2023-08-21T03:06:07.209Z,18.10
2023-08-21T03:11:11.443Z,17.70
2023-08-21T03:16:14.406Z,17.43
2023-08-21T03:21:17.280Z,17.80
2023-08-21T03:26:21.430Z,17.87
2023-08-21T03:31:24.274Z,16.67
2023-08-21T03:36:32.062Z,16.90
2023-08-21T03:41:36.446Z,18.27
2023-08-21T03:46:39.342Z,17.50
2023-08-21T03:51:42.262Z,18.73
2023-08-21T03:56:46.503Z,16.23
2023-08-21T04:01:49.479Z,19.00
2023-08-21T04:06:52.378Z,19.63
2023-08-21T04:11:56.839Z,20.37
2023-08-21T04:16:59.759Z,17.60
2023-08-21T04:22:02.947Z,17.30
2023-08-21T04:27:07.554Z,18.37
2023-08-21T04:32:11.008Z,17.10
2023-08-21T04:37:14.020Z,19.13
2023-08-21T04:42:18.189Z,19.30
2023-08-21T04:47:23.036Z,20.97
2023-08-21T04:52:26.830Z,20.50
2023-08-21T04:57:31.024Z,19.37
2023-08-21T05:02:33.832Z,19.27
2023-08-21T05:07:37.182Z,22.60
2023-08-21T05:12:41.487Z,19.30
2023-08-21T05:17:44.435Z,19.63
2023-08-21T05:22:47.375Z,21.97
2023-08-21T05:27:51.551Z,22.60
2023-08-21T05:32:54.429Z,21.70
2023-08-21T05:37:57.246Z,22.20
2023-08-21T05:43:01.432Z,22.30
2023-08-21T05:48:04.754Z,23.27
2023-08-21T05:53:07.806Z,23.17
2023-08-21T05:58:11.992Z,21.80
2023-08-21T06:03:14.872Z,22.63
2023-08-21T06:08:17.834Z,20.40
2023-08-21T06:13:22.068Z,20.67
2023-08-21T06:18:24.999Z,19.20
2023-08-21T06:23:28.130Z,17.90
2023-08-21T06:28:32.351Z,18.30
2023-08-21T06:33:35.338Z,18.80
2023-08-21T06:38:38.239Z,16.97
2023-08-21T06:43:45.257Z,18.53
2023-08-21T06:48:48.547Z,17.20
2023-08-21T06:53:51.586Z,16.90
2023-08-21T06:58:56.360Z,16.20
2023-08-21T07:03:59.304Z,16.93
2023-08-21T07:09:02.174Z,16.40
2023-08-21T07:14:06.475Z,16.50
2023-08-21T07:19:09.342Z,16.00
2023-08-21T07:24:12.172Z,15.57
2023-08-21T07:29:16.592Z,16.27
2023-08-21T07:34:19.523Z,15.50
2023-08-21T07:39:22.410Z,15.23
2023-08-21T07:44:27.014Z,15.70
2023-08-21T07:49:29.884Z,14.70
2023-08-21T07:54:32.794Z,14.97
2023-08-21T07:59:37.337Z,13.83
2023-08-21T08:04:40.219Z,13.70
2023-08-21T08:09:43.128Z,13.50
2023-08-21T08:14:47.886Z,13.70
2023-08-21T08:19:50.784Z,14.60
2023-08-21T08:24:53.714Z,14.60
2023-08-21T08:29:58.173Z,12.97
2023-08-21T08:35:01.001Z,13.20
2023-08-21T08:40:05.374Z,13.70
2023-08-21T08:45:10.517Z,12.80
2023-08-21T08:50:13.489Z,13.53
2023-08-21T08:55:16.910Z,14.03
2023-08-21T09:00:23.124Z,14.13
2023-08-21T09:05:26.077Z,12.53
2023-08-21T09:10:29.422Z,13.70
2023-08-21T09:15:41.742Z,13.37
2023-08-21T09:20:46.219Z,11.60
2023-08-21T09:25:50.442Z,12.03
2023-08-21T09:30:56.281Z,12.03
2023-08-21T09:35:59.154Z,11.10
2023-08-21T09:41:01.990Z,13.50
2023-08-21T09:46:06.177Z,12.63
2023-08-21T09:51:09.385Z,10.87
2023-08-21T09:56:13.059Z,10.67
2023-08-21T10:01:19.801Z,11.90
2023-08-21T10:06:24.305Z,11.67
2023-08-21T10:11:27.351Z,13.17
2023-08-21T10:16:31.903Z,12.57
2023-08-21T10:21:38.921Z,13.40
2023-08-21T10:26:47.629Z,13.57
2023-08-21T10:32:01.155Z,13.30
2023-08-21T10:37:10.778Z,13.97
2023-08-21T10:42:16.040Z,12.90
2023-08-21T10:47:22.380Z,13.10
2023-08-21T10:52:27.024Z,13.17
2023-08-21T10:57:31.223Z,12.20
2023-08-21T11:02:35.641Z,12.37
2023-08-21T11:07:40.682Z,12.40
2023-08-21T11:12:51.887Z,12.63
2023-08-21T11:17:58.631Z,11.30
2023-08-21T11:23:03.436Z,11.27
2023-08-21T11:28:07.665Z,10.60
2023-08-21T11:33:13.114Z,11.53
2023-08-21T11:38:18.760Z,11.63
2023-08-21T11:43:21.690Z,11.20
2023-08-21T11:48:25.938Z,9.50
2023-08-21T11:53:33.742Z,11.50
2023-08-21T11:58:40.554Z,10.03
2023-08-21T12:03:46.163Z,12.20
2023-08-21T12:08:49.245Z,10.77
2023-08-21T12:13:52.986Z,11.30
2023-08-21T12:18:58.552Z,10.17
2023-08-21T12:24:01.418Z,10.77
2023-08-21T12:29:04.453Z,10.37
2023-08-21T12:34:08.687Z,10.53
2023-08-21T12:39:11.541Z,9.90
2023-08-21T12:44:14.393Z,9.30
2023-08-21T12:49:18.559Z,9.50
2023-08-21T12:54:21.454Z,9.50
2023-08-21T12:59:24.370Z,8.40
2023-08-21T13:04:28.605Z,9.73
2023-08-21T13:09:31.441Z,9.17
2023-08-21T13:14:34.266Z,11.13
2023-08-21T13:19:38.425Z,9.23
2023-08-21T13:24:41.254Z,9.27
2023-08-21T13:29:44.241Z,9.27
2023-08-21T13:34:48.643Z,10.07
2023-08-21T13:39:51.490Z,9.37
2023-08-21T13:44:55.186Z,9.83
2023-08-21T13:50:00.228Z,10.13
2023-08-21T13:55:03.762Z,10.23
2023-08-21T14:00:09.136Z,9.17
2023-08-21T14:05:13.898Z,9.47
2023-08-21T14:10:16.873Z,8.97
2023-08-21T14:15:20.264Z,9.93
2023-08-21T14:20:24.536Z,10.00
2023-08-21T14:25:27.483Z,11.30
2023-08-21T14:30:30.363Z,10.23
2023-08-21T14:35:34.618Z,9.40
2023-08-21T14:40:37.552Z,9.27
2023-08-21T14:45:40.618Z,10.30
2023-08-21T14:50:44.861Z,9.40
2023-08-21T14:55:47.674Z,9.87
2023-08-21T15:00:52.289Z,11.30
2023-08-21T15:05:56.638Z,9.97
2023-08-21T15:10:59.558Z,9.90
2023-08-21T15:16:02.875Z,11.70
2023-08-21T15:21:07.121Z,10.33
2023-08-21T15:26:09.968Z,10.83
2023-08-21T15:31:12.823Z,9.80
2023-08-21T15:36:17.103Z,10.50
2023-08-21T15:41:20.046Z,9.90
2023-08-21T15:46:23.022Z,9.70
2023-08-21T15:51:27.300Z,10.30
2023-08-21T15:56:30.263Z,10.23
2023-08-21T16:01:33.481Z,9.70
2023-08-21T16:06:37.755Z,9.00
2023-08-21T16:11:40.759Z,11.00
2023-08-21T16:16:44.805Z,9.90
2023-08-21T16:21:50.912Z,10.40
2023-08-21T16:26:53.828Z,9.50
2023-08-21T16:31:57.041Z,8.73
2023-08-21T16:37:01.562Z,10.47
2023-08-21T16:42:04.794Z,9.30
2023-08-21T16:47:08.829Z,10.30
2023-08-21T16:52:13.109Z,10.20
2023-08-21T16:57:17.239Z,10.10
2023-08-21T17:02:22.969Z,9.43
2023-08-21T17:07:27.337Z,8.63
2023-08-21T17:12:31.224Z,9.37
2023-08-21T17:17:35.446Z,10.10
2023-08-21T17:22:41.243Z,9.40
2023-08-21T17:27:45.609Z,9.50
2023-08-21T17:32:50.602Z,8.90
2023-08-21T17:37:57.416Z,10.03
2023-08-21T17:43:02.341Z,10.90
2023-08-21T17:48:08.474Z,9.77
2023-08-21T17:53:14.987Z,10.37
2023-08-21T17:58:20.528Z,10.27
2023-08-21T18:03:26.007Z,10.33
2023-08-21T18:08:33.425Z,10.97
2023-08-21T18:13:39.917Z,10.83
2023-08-21T18:18:47.361Z,11.13
2023-08-21T18:23:56.125Z,10.30
2023-08-21T18:29:04.212Z,11.27
2023-08-21T18:34:09.838Z,11.53
2023-08-21T18:39:17.003Z,11.53
2023-08-21T18:44:22.598Z,10.97
2023-08-21T18:49:28.100Z,12.33
2023-08-21T18:54:35.299Z,12.60
2023-08-21T18:59:42.600Z,12.10
2023-08-21T19:04:49.669Z,11.53
2023-08-21T19:09:58.484Z,11.70
2023-08-21T19:15:07.964Z,12.13
2023-08-21T19:20:14.756Z,12.50
2023-08-21T19:25:24.087Z,12.20
2023-08-21T19:30:29.686Z,14.20
2023-08-21T19:35:36.968Z,11.80
2023-08-21T19:40:48.970Z,11.37
2023-08-21T19:46:00.594Z,11.00
2023-08-21T19:51:06.517Z,13.07
2023-08-21T19:56:13.752Z,12.93
2023-08-21T20:01:20.562Z,11.20
2023-08-21T20:06:25.838Z,13.10
2023-08-21T20:11:35.638Z,11.93
2023-08-21T20:16:40.974Z,12.33
2023-08-21T20:21:46.176Z,13.87
2023-08-21T20:26:53.195Z,12.70
2023-08-21T20:31:58.400Z,13.37
2023-08-21T20:37:03.380Z,13.37
2023-08-21T20:42:10.023Z,13.47
2023-08-21T20:47:15.761Z,12.83
2023-08-21T20:52:21.158Z,12.60
2023-08-21T20:57:28.400Z,12.43
2023-08-21T21:02:31.424Z,12.13
2023-08-21T21:07:36.020Z,13.80
2023-08-21T21:12:40.505Z,13.93
2023-08-21T21:17:43.650Z,13.07
2023-08-21T21:22:46.788Z,14.10
2023-08-21T21:27:51.206Z,12.23
2023-08-21T21:32:54.110Z,14.83
2023-08-21T21:37:56.977Z,13.13
2023-08-21T21:43:01.173Z,12.93
2023-08-21T21:48:04.146Z,12.77
2023-08-21T21:53:06.937Z,13.70
2023-08-21T21:58:11.161Z,13.60
2023-08-21T22:03:14.181Z,11.90
2023-08-21T22:08:17.349Z,12.63
2023-08-21T22:13:22.394Z,12.70
2023-08-21T22:18:25.244Z,12.37
2023-08-21T22:23:28.069Z,13.40
2023-08-21T22:28:32.365Z,13.87
2023-08-21T22:33:35.212Z,12.63
2023-08-21T22:38:38.281Z,13.93
2023-08-21T22:43:42.555Z,12.07
2023-08-21T22:48:45.467Z,13.87
2023-08-21T22:53:48.336Z,13.63
2023-08-21T22:58:52.590Z,14.07
2023-08-21T23:03:56.188Z,12.07
2023-08-21T23:08:59.056Z,12.87
2023-08-21T23:14:03.246Z,12.67
2023-08-21T23:19:06.388Z,12.93
2023-08-21T23:24:09.203Z,10.97
2023-08-21T23:29:13.407Z,11.50
2023-08-21T23:34:16.421Z,10.23
2023-08-21T23:39:19.310Z,12.37
2023-08-21T23:44:23.554Z,11.27
2023-08-21T23:49:26.571Z,11.00
2023-08-21T23:54:29.380Z,12.80
2023-08-21T23:59:33.724Z,12.90
